createdAt,value
2018-08-04T00:02:13.147Z,20.80
2018-08-04T00:04:43.502Z,20.80
2018-08-04T00:07:13.152Z,20.80
2018-08-04T00:09:42.925Z,20.80
2018-08-04T00:12:14.171Z,20.90
2018-08-04T00:14:44.077Z,20.90
2018-08-04T00:17:14.747Z,20.80
2018-08-04T00:19:45.739Z,20.80
2018-08-04T00:24:44.464Z,20.50
2018-08-04T00:27:16.181Z,20.40
2018-08-04T00:29:45.600Z,20.30
2018-08-04T00:32:16.196Z,20.20
2018-08-04T00:34:45.549Z,20.20
2018-08-04T00:37:18.054Z,20.20
2018-08-04T00:39:47.926Z,20.20
2018-08-04T00:42:18.154Z,20.30
2018-08-04T00:44:48.508Z,20.30
2018-08-04T00:47:18.663Z,20.30
2018-08-04T00:49:48.396Z,20.30
2018-08-04T00:52:18.189Z,20.40
2018-08-04T00:54:47.527Z,20.50
2018-08-04T00:57:17.096Z,20.60
2018-08-04T00:59:49.879Z,20.50
2018-08-04T01:02:19.365Z,20.40
2018-08-04T01:04:48.736Z,20.30
2018-08-04T01:07:19.259Z,20.20
2018-08-04T01:09:48.529Z,20.10
2018-08-04T01:12:17.841Z,20.20
2018-08-04T01:14:47.284Z,20.20
2018-08-04T01:17:18.943Z,20.30
2018-08-04T01:19:48.190Z,20.40
2018-08-04T01:22:18.441Z,20.30
2018-08-04T01:24:48.038Z,20.30
2018-08-04T01:27:17.567Z,20.30
2018-08-04T01:29:47.744Z,20.20
2018-08-04T01:32:17.941Z,20.10
2018-08-04T01:34:47.792Z,20.20
2018-08-04T01:37:17.438Z,20.20
2018-08-04T01:39:46.921Z,20.10
2018-08-04T01:42:16.784Z,20.10
2018-08-04T01:44:47.787Z,20.20
2018-08-04T01:47:18.916Z,20.20
2018-08-04T01:49:48.726Z,20.30
2018-08-04T01:52:18.583Z,20.30
2018-08-04T01:54:49.498Z,20.30
2018-08-04T01:57:20.010Z,20.40
2018-08-04T01:59:49.322Z,20.30
2018-08-04T02:02:19.108Z,20.40
2018-08-04T02:04:49.316Z,20.40
2018-08-04T02:07:18.911Z,20.40
2018-08-04T02:09:49.367Z,20.30
2018-08-04T02:12:19.002Z,20.20
2018-08-04T02:14:48.381Z,20.00
2018-08-04T02:17:21.660Z,19.90
2018-08-04T02:19:51.725Z,19.90
2018-08-04T02:22:20.952Z,20.00
2018-08-04T02:24:50.706Z,20.00
2018-08-04T02:27:21.274Z,19.90
2018-08-04T02:29:50.805Z,19.90
2018-08-04T02:32:20.450Z,19.90
2018-08-04T02:37:21.885Z,19.70
2018-08-04T02:39:51.142Z,19.70
2018-08-04T02:42:21.283Z,19.80
2018-08-04T02:44:51.318Z,19.80
2018-08-04T02:47:22.858Z,19.70
2018-08-04T02:49:52.723Z,19.70
2018-08-04T02:52:22.101Z,19.50
2018-08-04T02:54:53.070Z,19.50
2018-08-04T02:57:22.735Z,19.50
2018-08-04T02:59:51.999Z,19.50
2018-08-04T03:02:29.427Z,19.50
2018-08-04T03:04:59.432Z,19.50
2018-08-04T03:07:29.509Z,19.50
2018-08-04T03:09:59.487Z,19.50
2018-08-04T03:12:29.173Z,19.40
2018-08-04T03:14:59.770Z,19.30
2018-08-04T03:17:29.343Z,19.20
2018-08-04T03:19:59.550Z,19.20
2018-08-04T03:22:32.550Z,19.10
2018-08-04T03:25:03.028Z,19.10
2018-08-04T03:27:33.269Z,19.20
2018-08-04T03:30:02.548Z,19.20
2018-08-04T03:32:32.482Z,19.20
2018-08-04T03:35:01.908Z,19.20
2018-08-04T03:37:31.248Z,19.30
2018-08-04T03:40:00.726Z,19.30
2018-08-04T03:42:29.964Z,19.30
2018-08-04T03:44:59.415Z,19.20
2018-08-04T03:47:28.904Z,19.20
2018-08-04T03:49:58.647Z,19.20
2018-08-04T03:52:27.919Z,19.20
2018-08-04T03:54:57.229Z,19.10
2018-08-04T03:57:36.510Z,19.10
2018-08-04T04:00:07.826Z,19.10
2018-08-04T04:02:54.864Z,19.10
2018-08-04T04:05:24.635Z,19.10
2018-08-04T04:07:54.053Z,19.10
2018-08-04T04:10:23.987Z,19.10
2018-08-04T04:12:53.387Z,19.10
2018-08-04T04:15:23.403Z,19.20
2018-08-04T04:17:52.704Z,19.40
2018-08-04T04:20:21.969Z,19.40
2018-08-04T04:22:51.264Z,19.30
2018-08-04T04:25:20.509Z,19.30
2018-08-04T04:27:49.841Z,19.20
2018-08-04T04:30:19.553Z,19.10
2018-08-04T04:32:49.088Z,19.10
2018-08-04T04:35:18.492Z,19.20
2018-08-04T04:37:49.287Z,19.20
2018-08-04T04:40:18.507Z,19.30
2018-08-04T04:42:47.746Z,19.30
2018-08-04T04:45:17.256Z,19.40
2018-08-04T04:47:46.681Z,19.60
2018-08-04T04:50:16.032Z,19.60
2018-08-04T04:52:45.264Z,19.60
2018-08-04T04:55:14.627Z,19.60
2018-08-04T04:57:43.930Z,19.60
2018-08-04T05:00:13.265Z,19.70
2018-08-04T05:02:42.670Z,19.70
2018-08-04T05:05:12.175Z,19.80
2018-08-04T05:07:42.084Z,19.90
2018-08-04T05:10:11.755Z,19.90
2018-08-04T05:12:40.982Z,20.10
2018-08-04T05:15:10.237Z,20.20
2018-08-04T05:17:39.727Z,20.30
2018-08-04T05:20:09.109Z,20.40
2018-08-04T05:22:38.819Z,20.40
2018-08-04T05:25:08.311Z,20.50
2018-08-04T05:27:37.619Z,20.60
2018-08-04T05:30:07.810Z,20.70
2018-08-04T05:32:37.032Z,20.80
2018-08-04T05:35:08.724Z,20.90
2018-08-04T05:40:09.731Z,21.20
2018-08-04T05:42:41.366Z,21.30
2018-08-04T05:45:11.051Z,21.40
2018-08-04T05:47:41.087Z,21.40
2018-08-04T05:50:10.385Z,21.50
2018-08-04T05:52:40.678Z,21.70
2018-08-04T05:55:10.463Z,21.80
2018-08-04T05:57:39.841Z,21.90
2018-08-04T06:00:09.599Z,22.00
2018-08-04T06:02:38.951Z,22.10
2018-08-04T06:05:09.186Z,22.20
2018-08-04T06:07:40.027Z,22.30
2018-08-04T06:10:09.333Z,22.40
2018-08-04T06:12:39.377Z,22.50
2018-08-04T06:15:08.638Z,22.60
2018-08-04T06:17:39.594Z,22.70
2018-08-04T06:20:08.832Z,22.80
2018-08-04T06:22:38.360Z,23.00
2018-08-04T06:25:11.960Z,23.10
2018-08-04T06:27:41.385Z,23.30
2018-08-04T06:30:11.711Z,23.40
2018-08-04T06:32:41.879Z,23.50
2018-08-04T06:37:42.430Z,23.80
2018-08-04T06:40:11.740Z,23.90
2018-08-04T06:42:41.002Z,24.00
2018-08-04T06:45:10.279Z,24.10
2018-08-04T06:47:50.022Z,24.30
2018-08-04T06:50:19.547Z,24.40
2018-08-04T06:52:51.642Z,24.60
2018-08-04T06:55:21.724Z,24.70
2018-08-04T06:57:52.045Z,24.80
2018-08-04T07:00:21.278Z,25.00
2018-08-04T07:02:51.104Z,25.00
2018-08-04T07:07:51.448Z,25.30
2018-08-04T07:10:21.433Z,25.40
2018-08-04T07:12:50.645Z,25.60
2018-08-04T07:15:21.559Z,25.60
2018-08-04T07:17:50.899Z,25.80
2018-08-04T07:20:21.100Z,26.00
2018-08-04T07:22:51.235Z,26.10
2018-08-04T07:25:20.680Z,26.20
2018-08-04T07:27:50.408Z,26.30
2018-08-04T07:30:20.344Z,26.40
2018-08-04T07:32:49.728Z,26.60
2018-08-04T07:35:19.289Z,26.60
2018-08-04T07:37:50.280Z,26.80
2018-08-04T07:40:19.770Z,26.80
2018-08-04T07:42:49.784Z,26.90
2018-08-04T07:45:20.066Z,27.00
2018-08-04T07:47:50.267Z,27.10
2018-08-04T07:50:20.259Z,27.20
2018-08-04T07:52:50.038Z,27.20
2018-08-04T07:55:20.927Z,27.40
2018-08-04T07:57:53.136Z,27.40
2018-08-04T08:00:23.133Z,27.40
2018-08-04T08:02:52.940Z,27.60
2018-08-04T08:05:23.117Z,27.70
2018-08-04T08:07:53.759Z,27.80
2018-08-04T08:10:23.982Z,27.80
2018-08-04T08:12:55.628Z,27.80
2018-08-04T08:15:26.198Z,27.90
2018-08-04T08:17:56.852Z,28.00
2018-08-04T08:20:26.613Z,28.10
2018-08-04T08:22:58.842Z,28.20
2018-08-04T08:25:33.643Z,28.20
2018-08-04T08:28:03.497Z,28.30
2018-08-04T08:30:32.947Z,28.40
2018-08-04T08:33:02.929Z,28.50
2018-08-04T08:35:32.618Z,28.60
2018-08-04T08:38:03.502Z,28.70
2018-08-04T08:40:33.182Z,28.90
2018-08-04T08:43:03.191Z,29.00
2018-08-04T08:45:32.931Z,29.10
2018-08-04T08:48:02.662Z,29.20
2018-08-04T08:50:34.250Z,29.30
2018-08-04T08:53:04.015Z,29.20
2018-08-04T08:55:33.671Z,29.30
2018-08-04T09:00:34.251Z,29.40
2018-08-04T09:03:04.630Z,29.50
2018-08-04T09:05:34.059Z,29.60
2018-08-04T09:08:03.755Z,29.70
2018-08-04T09:10:33.440Z,29.80
2018-08-04T09:13:03.004Z,29.90
2018-08-04T09:15:32.497Z,30.00
2018-08-04T09:18:03.277Z,30.10
2018-08-04T09:20:32.763Z,30.10
2018-08-04T09:23:02.340Z,30.10
2018-08-04T09:25:31.858Z,30.20
2018-08-04T09:28:02.114Z,30.40
2018-08-04T09:30:31.505Z,30.50
2018-08-04T09:33:01.080Z,30.70
2018-08-04T09:35:30.467Z,30.80
2018-08-04T09:38:00.068Z,30.90
2018-08-04T09:40:29.653Z,31.00
2018-08-04T09:42:59.375Z,31.30
2018-08-04T09:45:29.534Z,31.50
2018-08-04T09:48:01.231Z,31.70
2018-08-04T09:50:31.388Z,31.90
2018-08-04T09:53:01.007Z,32.10
2018-08-04T09:55:30.210Z,32.20
2018-08-04T09:57:59.532Z,32.40
2018-08-04T10:02:36.635Z,32.50
2018-08-04T10:05:05.939Z,32.60
2018-08-04T10:07:36.490Z,32.50
2018-08-04T10:10:05.807Z,32.30
2018-08-04T10:12:35.055Z,32.20
2018-08-04T10:15:05.521Z,32.20
2018-08-04T10:17:36.696Z,32.40
2018-08-04T10:20:08.605Z,32.50
2018-08-04T10:22:38.348Z,32.50
2018-08-04T10:25:08.381Z,32.60
2018-08-04T10:27:38.740Z,32.70
2018-08-04T10:30:11.344Z,32.70
2018-08-04T10:32:41.033Z,32.80
2018-08-04T10:35:10.312Z,32.80
2018-08-04T10:37:39.804Z,32.80
2018-08-04T10:40:09.315Z,32.80
2018-08-04T10:42:38.881Z,32.90
2018-08-04T10:45:10.008Z,32.80
2018-08-04T10:47:41.435Z,32.90
2018-08-04T10:50:10.960Z,33.00
2018-08-04T10:52:40.578Z,33.10
2018-08-04T10:55:09.982Z,33.20
2018-08-04T10:57:40.441Z,33.30
2018-08-04T11:00:10.492Z,33.50
2018-08-04T11:02:42.455Z,33.70
2018-08-04T11:05:11.849Z,33.70
2018-08-04T11:07:41.454Z,33.80
2018-08-04T11:10:10.856Z,33.90
2018-08-04T11:12:40.582Z,34.20
2018-08-04T11:15:09.962Z,34.30
2018-08-04T11:17:39.662Z,34.50
2018-08-04T11:20:09.264Z,34.40
2018-08-04T11:22:38.737Z,34.40
2018-08-04T11:25:08.302Z,34.30
2018-08-04T11:27:37.770Z,34.20
2018-08-04T11:30:08.382Z,34.00
2018-08-04T11:32:38.599Z,34.00
2018-08-04T11:35:08.034Z,33.80
2018-08-04T11:37:37.851Z,33.50
2018-08-04T11:40:07.326Z,33.30
2018-08-04T11:42:36.853Z,33.40
2018-08-04T11:45:06.535Z,33.50
2018-08-04T11:47:36.292Z,33.70
2018-08-04T11:50:05.631Z,33.90
2018-08-04T11:52:34.855Z,34.00
2018-08-04T11:55:05.111Z,34.30
2018-08-04T12:00:04.967Z,34.70
2018-08-04T12:02:35.347Z,34.90
2018-08-04T12:05:05.338Z,34.70
2018-08-04T12:07:35.411Z,34.30
2018-08-04T12:12:35.013Z,33.90
2018-08-04T12:15:04.634Z,33.90
2018-08-04T12:17:34.417Z,34.00
2018-08-04T12:20:04.658Z,34.10
2018-08-04T12:22:34.344Z,34.20
2018-08-04T12:25:04.432Z,34.40
2018-08-04T12:27:34.090Z,34.60
2018-08-04T12:32:34.595Z,34.70
2018-08-04T12:35:09.914Z,34.50
2018-08-04T12:37:40.015Z,34.30
2018-08-04T12:40:09.525Z,34.20
2018-08-04T12:42:38.996Z,34.40
2018-08-04T12:45:09.223Z,34.60
2018-08-04T12:47:39.483Z,34.80
2018-08-04T12:50:10.014Z,34.90
2018-08-04T12:52:39.412Z,35.00
2018-08-04T12:55:09.440Z,35.00
2018-08-04T12:57:39.066Z,35.00
2018-08-04T13:00:09.674Z,35.00
2018-08-04T13:02:39.831Z,35.10
2018-08-04T13:05:09.744Z,35.30
2018-08-04T13:07:41.166Z,35.30
2018-08-04T13:10:11.977Z,35.00
2018-08-04T13:12:41.522Z,34.60
2018-08-04T13:15:11.664Z,34.30
2018-08-04T13:17:41.050Z,34.40
2018-08-04T13:20:12.109Z,34.60
2018-08-04T13:22:43.373Z,34.80
2018-08-04T13:25:13.176Z,34.90
2018-08-04T13:27:42.525Z,35.10
2018-08-04T13:30:11.891Z,35.20
2018-08-04T13:32:41.346Z,35.30
2018-08-04T13:35:11.520Z,35.40
2018-08-04T13:37:41.307Z,35.50
2018-08-04T13:40:13.812Z,35.70
2018-08-04T13:42:43.263Z,36.00
2018-08-04T13:45:14.924Z,37.20
2018-08-04T13:47:44.515Z,38.80
2018-08-04T13:50:16.684Z,41.30
2018-08-04T13:52:46.792Z,41.20
2018-08-04T13:55:16.247Z,42.70
2018-08-04T13:57:45.879Z,43.40
2018-08-04T14:00:17.992Z,43.80
2018-08-04T14:02:47.347Z,43.90
2018-08-04T14:05:16.996Z,43.90
2018-08-04T14:07:46.703Z,44.40
2018-08-04T14:10:16.881Z,45.00
2018-08-04T14:12:46.653Z,45.40
2018-08-04T14:15:16.627Z,44.30
2018-08-04T14:17:46.339Z,44.10
2018-08-04T14:20:16.954Z,44.10
2018-08-04T14:22:46.324Z,42.90
2018-08-04T14:25:16.381Z,41.60
2018-08-04T14:27:45.665Z,39.80
2018-08-04T14:30:15.903Z,38.20
2018-08-04T14:32:45.108Z,38.50
2018-08-04T14:35:15.964Z,39.30
2018-08-04T14:37:45.424Z,40.70
2018-08-04T14:40:15.857Z,42.30
2018-08-04T14:42:45.385Z,42.80
2018-08-04T14:45:17.169Z,43.30
2018-08-04T14:47:46.728Z,44.30
2018-08-04T14:50:18.064Z,45.10
2018-08-04T14:52:47.329Z,45.80
2018-08-04T14:55:21.204Z,45.50
2018-08-04T14:57:51.570Z,45.90
2018-08-04T15:00:21.713Z,44.80
2018-08-04T15:02:50.923Z,43.60
2018-08-04T15:05:20.437Z,42.00
2018-08-04T15:07:58.072Z,40.60
2018-08-04T15:10:27.247Z,39.70
2018-08-04T15:13:59.340Z,40.30
2018-08-04T15:17:20.308Z,40.50
2018-08-04T15:19:49.812Z,39.70
2018-08-04T15:22:19.074Z,39.30
2018-08-04T15:24:49.227Z,38.30
2018-08-04T15:27:18.621Z,37.60
2018-08-04T15:29:50.888Z,37.60
2018-08-04T15:32:23.948Z,37.60
2018-08-04T15:37:26.698Z,40.60
2018-08-04T15:39:57.985Z,40.70
2018-08-04T15:42:28.739Z,41.80
2018-08-04T15:44:57.895Z,43.20
2018-08-04T15:47:29.716Z,44.10
2018-08-04T15:49:59.115Z,44.50
2018-08-04T15:52:28.330Z,44.70
2018-08-04T15:54:57.529Z,45.20
2018-08-04T15:57:30.367Z,45.10
2018-08-04T15:59:59.552Z,45.50
2018-08-04T16:02:30.415Z,45.80
2018-08-04T16:04:59.575Z,45.10
2018-08-04T16:07:28.894Z,43.30
2018-08-04T16:09:58.229Z,41.40
2018-08-04T16:12:28.113Z,40.10
2018-08-04T16:14:57.334Z,40.20
2018-08-04T16:17:28.990Z,41.10
2018-08-04T16:19:58.812Z,41.20
2018-08-04T16:22:28.034Z,40.50
2018-08-04T16:24:57.255Z,39.30
2018-08-04T16:27:26.566Z,38.40
2018-08-04T16:29:55.738Z,37.70
2018-08-04T16:32:28.215Z,37.00
2018-08-04T16:34:57.411Z,36.30
2018-08-04T16:37:30.096Z,35.90
2018-08-04T16:42:29.435Z,35.50
2018-08-04T16:44:59.402Z,35.40
2018-08-04T16:47:30.852Z,35.40
2018-08-04T16:50:00.152Z,35.40
2018-08-04T16:52:29.575Z,35.30
2018-08-04T16:54:58.773Z,35.50
2018-08-04T16:57:30.111Z,35.40
2018-08-04T16:59:59.342Z,35.30
2018-08-04T17:02:30.596Z,35.00
2018-08-04T17:04:59.754Z,34.70
2018-08-04T17:07:29.073Z,34.60
2018-08-04T17:12:28.092Z,34.30
2018-08-04T17:14:57.290Z,34.00
2018-08-04T17:17:29.741Z,33.90
2018-08-04T17:19:58.969Z,33.50
2018-08-04T17:22:28.245Z,33.40
2018-08-04T17:24:58.351Z,33.40
2018-08-04T17:27:27.570Z,33.30
2018-08-04T17:29:56.761Z,33.10
2018-08-04T17:32:29.455Z,33.10
2018-08-04T17:37:27.572Z,32.90
2018-08-04T17:39:56.703Z,32.80
2018-08-04T17:42:25.889Z,32.70
2018-08-04T17:44:55.082Z,32.70
2018-08-04T17:47:25.905Z,32.60
2018-08-04T17:49:55.100Z,32.60
2018-08-04T17:52:24.283Z,32.60
2018-08-04T17:54:53.506Z,32.50
2018-08-04T17:57:24.813Z,32.40
2018-08-04T17:59:53.937Z,32.30
2018-08-04T18:02:24.890Z,32.30
2018-08-04T18:04:54.906Z,32.10
2018-08-04T18:07:25.234Z,32.00
2018-08-04T18:09:54.462Z,32.00
2018-08-04T18:12:24.379Z,31.90
2018-08-04T18:14:54.539Z,31.80
2018-08-04T18:19:56.099Z,31.60
2018-08-04T18:22:25.311Z,31.50
2018-08-04T18:24:54.727Z,31.50
2018-08-04T18:27:24.127Z,31.30
2018-08-04T18:29:53.340Z,31.30
2018-08-04T18:32:24.146Z,31.20
2018-08-04T18:34:53.333Z,31.10
2018-08-04T18:37:22.747Z,31.00
2018-08-04T18:39:51.938Z,30.90
2018-08-04T18:42:21.200Z,30.80
2018-08-04T18:44:50.411Z,30.70
2018-08-04T18:47:25.398Z,30.60
2018-08-04T18:49:54.778Z,30.50
2018-08-04T18:54:53.231Z,30.30
2018-08-04T18:57:22.493Z,30.10
2018-08-04T18:59:51.683Z,29.90
2018-08-04T19:02:23.282Z,29.70
2018-08-04T19:04:52.500Z,29.40
2018-08-04T19:07:21.713Z,29.20
2018-08-04T19:09:50.950Z,29.10
2018-08-04T19:12:20.238Z,28.90
2018-08-04T19:14:49.461Z,28.70
2018-08-04T19:17:19.821Z,28.40
2018-08-04T19:19:49.369Z,28.00
2018-08-04T19:22:18.607Z,27.50
2018-08-04T19:24:47.768Z,27.30
2018-08-04T19:27:17.170Z,27.10
2018-08-04T19:29:46.425Z,26.90
2018-08-04T19:32:15.948Z,26.80
2018-08-04T19:34:45.259Z,26.70
2018-08-04T19:37:15.464Z,26.60
2018-08-04T19:39:44.713Z,26.50
2018-08-04T19:42:13.900Z,26.20
2018-08-04T19:44:43.191Z,26.10
2018-08-04T19:47:12.596Z,25.90
2018-08-04T19:49:41.840Z,25.70
2018-08-04T19:52:11.159Z,25.60
2018-08-04T19:54:40.497Z,25.60
2018-08-04T19:57:09.844Z,25.60
2018-08-04T19:59:39.069Z,25.50
2018-08-04T20:04:37.254Z,25.30
2018-08-04T20:07:06.600Z,25.30
2018-08-04T20:09:35.866Z,25.10
2018-08-04T20:12:05.299Z,24.90
2018-08-04T20:14:34.526Z,24.80
2018-08-04T20:17:03.775Z,24.70
2018-08-04T20:19:33.001Z,24.70
2018-08-04T20:22:02.197Z,24.60
2018-08-04T20:24:31.404Z,24.60
2018-08-04T20:27:00.799Z,24.50
2018-08-04T20:29:30.196Z,24.50
2018-08-04T20:31:59.382Z,24.40
2018-08-04T20:34:28.628Z,24.30
2018-08-04T20:36:57.989Z,24.20
2018-08-04T20:39:27.187Z,24.10
2018-08-04T20:41:57.262Z,24.00
2018-08-04T20:44:26.494Z,23.90
2018-08-04T20:46:55.958Z,23.80
2018-08-04T20:49:25.203Z,23.90
2018-08-04T20:51:54.406Z,23.80
2018-08-04T20:54:23.660Z,23.60
2018-08-04T20:56:52.996Z,23.60
2018-08-04T20:59:22.275Z,23.60
2018-08-04T21:01:58.468Z,23.60
2018-08-04T21:04:28.704Z,23.50
2018-08-04T21:06:58.056Z,23.50
2018-08-04T21:09:27.281Z,23.40
2018-08-04T21:11:56.821Z,23.40
2018-08-04T21:14:27.013Z,23.30
2018-08-04T21:16:57.342Z,23.20
2018-08-04T21:19:27.075Z,23.00
2018-08-04T21:21:56.309Z,23.00
2018-08-04T21:24:26.368Z,23.00
2018-08-04T21:26:56.176Z,23.00
2018-08-04T21:29:25.471Z,23.00
2018-08-04T21:31:54.720Z,22.90
2018-08-04T21:34:23.977Z,22.70
2018-08-04T21:36:53.289Z,22.70
2018-08-04T21:39:22.490Z,22.70
2018-08-04T21:41:51.773Z,22.70
2018-08-04T21:44:21.015Z,22.70
2018-08-04T21:46:51.287Z,22.60
2018-08-04T21:49:21.037Z,22.50
2018-08-04T21:51:50.998Z,22.50
2018-08-04T21:54:20.368Z,22.40
2018-08-04T21:56:49.756Z,22.50
2018-08-04T21:59:18.935Z,22.40
2018-08-04T22:01:54.627Z,22.40
2018-08-04T22:04:24.082Z,22.40
2018-08-04T22:08:02.475Z,22.20
2018-08-04T22:10:31.715Z,22.10
2018-08-04T22:13:00.987Z,22.00
2018-08-04T22:15:30.186Z,21.90
2018-08-04T22:18:00.508Z,21.80
2018-08-04T22:20:30.483Z,21.80
2018-08-04T22:22:59.694Z,21.80
2018-08-04T22:25:29.989Z,21.70
2018-08-04T22:27:59.782Z,21.70
2018-08-04T22:30:29.013Z,21.60
2018-08-04T22:32:58.217Z,21.60
2018-08-04T22:35:27.440Z,21.70
2018-08-04T22:37:56.777Z,21.70
2018-08-04T22:40:25.973Z,21.70
2018-08-04T22:42:55.265Z,21.60
2018-08-04T22:45:29.328Z,21.60
2018-08-04T22:47:58.704Z,21.60
2018-08-04T22:50:27.940Z,21.50
2018-08-04T22:52:57.166Z,21.60
2018-08-04T22:55:26.355Z,21.60
2018-08-04T22:57:56.904Z,21.60
2018-08-04T23:00:26.142Z,21.60
2018-08-04T23:02:56.506Z,21.60
2018-08-04T23:05:25.746Z,21.70
2018-08-04T23:07:55.169Z,21.80
2018-08-04T23:10:24.378Z,21.80
2018-08-04T23:12:53.606Z,21.80
2018-08-04T23:15:22.806Z,21.80
2018-08-04T23:17:52.145Z,21.80
2018-08-04T23:20:21.405Z,21.80
2018-08-04T23:22:50.844Z,21.70
2018-08-04T23:25:20.468Z,21.60
2018-08-04T23:27:50.658Z,21.50
2018-08-04T23:30:20.605Z,21.50
2018-08-04T23:32:50.827Z,21.40
2018-08-04T23:35:20.425Z,21.30
2018-08-04T23:37:50.320Z,21.30
2018-08-04T23:42:48.655Z,21.30
2018-08-04T23:45:17.921Z,21.20
2018-08-04T23:47:48.354Z,21.10
2018-08-04T23:50:18.825Z,20.90
2018-08-04T23:52:48.188Z,20.90
2018-08-04T23:55:17.391Z,21.00
2018-08-04T23:57:47.787Z,21.00
